sensor_id;sensor_type;location;lat;lon;timestamp;P1;durP1;ratioP1;P2;durP2;ratioP2
76631;SDS011;65526;48.578;-4.520;2022-12-10T00:01:11;52.38;;;23.70;;
76631;SDS011;65526;48.578;-4.520;2022-12-10T00:03:40;49.17;;;21.88;;
76631;SDS011;65526;48.578;-4.520;2022-12-10T00:06:09;48.83;;;21.70;;
76631;SDS011;65526;48.578;-4.520;2022-12-10T00:08:37;37.47;;;20.58;;
76631;SDS011;65526;48.578;-4.520;2022-12-10T00:11:04;43.60;;;22.17;;
76631;SDS011;65526;48.578;-4.520;2022-12-10T00:13:32;44.22;;;22.67;;
76631;SDS011;65526;48.578;-4.520;2022-12-10T00:16:00;37.65;;;20.35;;
76631;SDS011;65526;48.578;-4.520;2022-12-10T00:18:28;36.38;;;19.00;;
76631;SDS011;65526;48.578;-4.520;2022-12-10T00:20:55;39.15;;;20.05;;
76631;SDS011;65526;48.578;-4.520;2022-12-10T00:23:21;48.20;;;21.63;;
76631;SDS011;65526;48.578;-4.520;2022-12-10T00:25:48;47.80;;;21.17;;
76631;SDS011;65526;48.578;-4.520;2022-12-10T00:28:14;44.25;;;22.58;;
76631;SDS011;65526;48.578;-4.520;2022-12-10T00:30:41;42.42;;;22.13;;
76631;SDS011;65526;48.578;-4.520;2022-12-10T00:33:07;49.92;;;23.88;;
76631;SDS011;65526;48.578;-4.520;2022-12-10T00:35:37;46.30;;;22.05;;
76631;SDS011;65526;48.578;-4.520;2022-12-10T00:38:03;32.90;;;18.58;;
76631;SDS011;65526;48.578;-4.520;2022-12-10T00:40:29;30.27;;;17.08;;
76631;SDS011;65526;48.578;-4.520;2022-12-10T00:42:56;27.33;;;15.25;;
76631;SDS011;65526;48.578;-4.520;2022-12-10T00:45:22;23.75;;;14.77;;
76631;SDS011;65526;48.578;-4.520;2022-12-10T00:47:49;22.15;;;14.18;;
76631;SDS011;65526;48.578;-4.520;2022-12-10T00:50:15;18.38;;;12.77;;
76631;SDS011;65526;48.578;-4.520;2022-12-10T00:52:42;20.67;;;12.52;;
76631;SDS011;65526;48.578;-4.520;2022-12-10T00:55:08;21.40;;;12.63;;
76631;SDS011;65526;48.578;-4.520;2022-12-10T00:57:35;21.10;;;12.07;;
76631;SDS011;65526;48.578;-4.520;2022-12-10T01:00:02;20.85;;;12.23;;
76631;SDS011;65526;48.578;-4.520;2022-12-10T01:02:29;12.98;;;9.80;;
76631;SDS011;65526;48.578;-4.520;2022-12-10T01:04:55;17.00;;;11.45;;
76631;SDS011;65526;48.578;-4.520;2022-12-10T01:07:23;17.75;;;11.23;;
76631;SDS011;65526;48.578;-4.520;2022-12-10T01:09:49;17.35;;;11.10;;
76631;SDS011;65526;48.578;-4.520;2022-12-10T01:12:16;18.38;;;11.85;;
76631;SDS011;65526;48.578;-4.520;2022-12-10T01:14:42;18.65;;;12.18;;
76631;SDS011;65526;48.578;-4.520;2022-12-10T01:17:09;22.08;;;12.10;;
76631;SDS011;65526;48.578;-4.520;2022-12-10T01:19:35;17.52;;;11.45;;
76631;SDS011;65526;48.578;-4.520;2022-12-10T01:22:02;17.65;;;11.68;;
76631;SDS011;65526;48.578;-4.520;2022-12-10T01:24:29;19.20;;;11.82;;
76631;SDS011;65526;48.578;-4.520;2022-12-10T01:26:56;15.70;;;11.02;;
76631;SDS011;65526;48.578;-4.520;2022-12-10T01:29:23;19.92;;;11.80;;
76631;SDS011;65526;48.578;-4.520;2022-12-10T01:31:52;18.58;;;12.52;;
76631;SDS011;65526;48.578;-4.520;2022-12-10T01:34:20;17.08;;;11.20;;
76631;SDS011;65526;48.578;-4.520;2022-12-10T01:36:51;14.30;;;9.65;;
76631;SDS011;65526;48.578;-4.520;2022-12-10T01:39:20;19.65;;;11.52;;
76631;SDS011;65526;48.578;-4.520;2022-12-10T01:41:52;17.85;;;11.52;;
76631;SDS011;65526;48.578;-4.520;2022-12-10T01:46:47;17.40;;;10.85;;
76631;SDS011;65526;48.578;-4.520;2022-12-10T01:49:17;20.60;;;10.63;;
76631;SDS011;65526;48.578;-4.520;2022-12-10T01:51:46;16.77;;;10.80;;
76631;SDS011;65526;48.578;-4.520;2022-12-10T01:54:26;16.95;;;10.90;;
76631;SDS011;65526;48.578;-4.520;2022-12-10T01:56:57;14.25;;;11.15;;
76631;SDS011;65526;48.578;-4.520;2022-12-10T01:59:26;18.58;;;11.55;;
76631;SDS011;65526;48.578;-4.520;2022-12-10T02:02:11;19.58;;;11.00;;
76631;SDS011;65526;48.578;-4.520;2022-12-10T02:05:07;20.60;;;11.93;;
76631;SDS011;65526;48.578;-4.520;2022-12-10T02:08:32;16.67;;;11.02;;
76631;SDS011;65526;48.578;-4.520;2022-12-10T02:19:21;17.38;;;10.95;;
76631;SDS011;65526;48.578;-4.520;2022-12-10T02:21:57;16.65;;;11.48;;
76631;SDS011;65526;48.578;-4.520;2022-12-10T02:24:28;20.55;;;13.15;;
76631;SDS011;65526;48.578;-4.520;2022-12-10T02:27:02;17.85;;;10.95;;
76631;SDS011;65526;48.578;-4.520;2022-12-10T02:29:36;17.48;;;11.43;;
76631;SDS011;65526;48.578;-4.520;2022-12-10T02:32:06;16.73;;;11.20;;
76631;SDS011;65526;48.578;-4.520;2022-12-10T02:34:38;16.65;;;10.18;;
76631;SDS011;65526;48.578;-4.520;2022-12-10T02:37:14;20.45;;;12.13;;
76631;SDS011;65526;48.578;-4.520;2022-12-10T02:39:54;17.58;;;10.65;;
76631;SDS011;65526;48.578;-4.520;2022-12-10T02:42:25;16.65;;;10.88;;
76631;SDS011;65526;48.578;-4.520;2022-12-10T02:44:56;14.20;;;9.93;;
76631;SDS011;65526;48.578;-4.520;2022-12-10T02:47:24;13.63;;;9.30;;
76631;SDS011;65526;48.578;-4.520;2022-12-10T02:49:53;17.95;;;10.55;;
76631;SDS011;65526;48.578;-4.520;2022-12-10T02:52:22;18.77;;;11.07;;
76631;SDS011;65526;48.578;-4.520;2022-12-10T02:54:52;16.20;;;10.02;;
76631;SDS011;65526;48.578;-4.520;2022-12-10T03:05:44;15.52;;;9.80;;
76631;SDS011;65526;48.578;-4.520;2022-12-10T03:08:23;17.65;;;10.50;;
76631;SDS011;65526;48.578;-4.520;2022-12-10T03:11:06;15.20;;;10.23;;
76631;SDS011;65526;48.578;-4.520;2022-12-10T03:13:48;15.05;;;10.00;;
76631;SDS011;65526;48.578;-4.520;2022-12-10T03:16:35;22.17;;;12.07;;
76631;SDS011;65526;48.578;-4.520;2022-12-10T03:19:15;14.57;;;10.77;;
76631;SDS011;65526;48.578;-4.520;2022-12-10T03:21:45;22.00;;;11.55;;
76631;SDS011;65526;48.578;-4.520;2022-12-10T03:24:14;19.90;;;12.45;;
76631;SDS011;65526;48.578;-4.520;2022-12-10T03:26:44;19.88;;;12.18;;
76631;SDS011;65526;48.578;-4.520;2022-12-10T03:29:16;21.00;;;12.45;;
76631;SDS011;65526;48.578;-4.520;2022-12-10T03:31:48;21.90;;;12.02;;
76631;SDS011;65526;48.578;-4.520;2022-12-10T03:34:16;18.63;;;11.40;;
76631;SDS011;65526;48.578;-4.520;2022-12-10T03:36:43;15.52;;;10.13;;
76631;SDS011;65526;48.578;-4.520;2022-12-10T03:39:11;18.65;;;10.88;;
76631;SDS011;65526;48.578;-4.520;2022-12-10T03:41:38;19.15;;;11.77;;
76631;SDS011;65526;48.578;-4.520;2022-12-10T03:44:05;17.48;;;11.07;;
76631;SDS011;65526;48.578;-4.520;2022-12-10T03:46:31;19.17;;;10.63;;
76631;SDS011;65526;48.578;-4.520;2022-12-10T03:48:59;19.98;;;11.75;;
76631;SDS011;65526;48.578;-4.520;2022-12-10T03:51:26;19.08;;;11.65;;
76631;SDS011;65526;48.578;-4.520;2022-12-10T03:53:52;18.50;;;9.93;;
76631;SDS011;65526;48.578;-4.520;2022-12-10T03:56:19;17.58;;;11.20;;
76631;SDS011;65526;48.578;-4.520;2022-12-10T03:58:46;15.50;;;9.40;;
76631;SDS011;65526;48.578;-4.520;2022-12-10T04:01:14;15.80;;;10.10;;
76631;SDS011;65526;48.578;-4.520;2022-12-10T04:03:41;15.85;;;11.25;;
76631;SDS011;65526;48.578;-4.520;2022-12-10T04:06:10;14.93;;;11.13;;
76631;SDS011;65526;48.578;-4.520;2022-12-10T04:08:39;15.65;;;9.98;;
76631;SDS011;65526;48.578;-4.520;2022-12-10T04:11:07;16.85;;;10.27;;
76631;SDS011;65526;48.578;-4.520;2022-12-10T04:13:35;14.75;;;10.10;;
76631;SDS011;65526;48.578;-4.520;2022-12-10T04:16:22;15.18;;;9.38;;
76631;SDS011;65526;48.578;-4.520;2022-12-10T04:18:59;14.60;;;9.88;;
76631;SDS011;65526;48.578;-4.520;2022-12-10T04:21:27;13.55;;;9.32;;
76631;SDS011;65526;48.578;-4.520;2022-12-10T04:24:13;12.38;;;9.00;;
76631;SDS011;65526;48.578;-4.520;2022-12-10T04:27:01;12.85;;;9.27;;
76631;SDS011;65526;48.578;-4.520;2022-12-10T04:29:30;15.23;;;9.18;;
76631;SDS011;65526;48.578;-4.520;2022-12-10T04:31:57;13.73;;;9.35;;
76631;SDS011;65526;48.578;-4.520;2022-12-10T04:34:24;14.38;;;8.75;;
76631;SDS011;65526;48.578;-4.520;2022-12-10T04:36:50;13.75;;;9.60;;
76631;SDS011;65526;48.578;-4.520;2022-12-10T04:39:17;12.80;;;8.13;;
76631;SDS011;65526;48.578;-4.520;2022-12-10T04:41:48;13.93;;;8.85;;
76631;SDS011;65526;48.578;-4.520;2022-12-10T04:44:22;13.23;;;9.88;;
76631;SDS011;65526;48.578;-4.520;2022-12-10T04:46:49;14.50;;;9.65;;
76631;SDS011;65526;48.578;-4.520;2022-12-10T04:51:49;11.95;;;8.27;;
76631;SDS011;65526;48.578;-4.520;2022-12-10T04:54:22;13.52;;;8.38;;
76631;SDS011;65526;48.578;-4.520;2022-12-10T04:56:49;14.00;;;9.18;;
76631;SDS011;65526;48.578;-4.520;2022-12-10T04:59:15;12.90;;;8.38;;
76631;SDS011;65526;48.578;-4.520;2022-12-10T05:01:42;13.30;;;8.77;;
76631;SDS011;65526;48.578;-4.520;2022-12-10T05:04:09;15.32;;;8.88;;
76631;SDS011;65526;48.578;-4.520;2022-12-10T05:06:39;14.82;;;9.35;;
76631;SDS011;65526;48.578;-4.520;2022-12-10T05:09:06;16.75;;;10.02;;
76631;SDS011;65526;48.578;-4.520;2022-12-10T05:11:33;10.73;;;7.60;;
76631;SDS011;65526;48.578;-4.520;2022-12-10T05:14:00;13.65;;;8.52;;
76631;SDS011;65526;48.578;-4.520;2022-12-10T05:16:27;14.27;;;9.52;;
76631;SDS011;65526;48.578;-4.520;2022-12-10T05:18:56;13.55;;;8.60;;
76631;SDS011;65526;48.578;-4.520;2022-12-10T05:21:24;14.32;;;8.50;;
76631;SDS011;65526;48.578;-4.520;2022-12-10T05:24:12;12.93;;;8.07;;
76631;SDS011;65526;48.578;-4.520;2022-12-10T05:26:39;13.77;;;8.98;;
76631;SDS011;65526;48.578;-4.520;2022-12-10T05:29:05;13.57;;;8.25;;
76631;SDS011;65526;48.578;-4.520;2022-12-10T05:31:32;15.88;;;9.50;;
76631;SDS011;65526;48.578;-4.520;2022-12-10T05:33:58;14.77;;;9.70;;
76631;SDS011;65526;48.578;-4.520;2022-12-10T05:36:26;14.25;;;8.55;;
76631;SDS011;65526;48.578;-4.520;2022-12-10T05:38:56;15.23;;;9.57;;
76631;SDS011;65526;48.578;-4.520;2022-12-10T05:41:29;12.57;;;8.80;;
76631;SDS011;65526;48.578;-4.520;2022-12-10T05:43:59;14.85;;;9.70;;
76631;SDS011;65526;48.578;-4.520;2022-12-10T05:46:28;15.20;;;9.93;;
76631;SDS011;65526;48.578;-4.520;2022-12-10T05:48:59;19.17;;;9.75;;
76631;SDS011;65526;48.578;-4.520;2022-12-10T05:51:28;16.08;;;9.70;;
76631;SDS011;65526;48.578;-4.520;2022-12-10T05:53:57;17.77;;;11.48;;
76631;SDS011;65526;48.578;-4.520;2022-12-10T05:56:24;17.92;;;11.88;;
76631;SDS011;65526;48.578;-4.520;2022-12-10T05:58:52;14.77;;;9.82;;
76631;SDS011;65526;48.578;-4.520;2022-12-10T06:01:21;18.48;;;10.52;;
76631;SDS011;65526;48.578;-4.520;2022-12-10T06:03:50;14.25;;;9.93;;
76631;SDS011;65526;48.578;-4.520;2022-12-10T06:06:21;13.75;;;9.55;;
76631;SDS011;65526;48.578;-4.520;2022-12-10T06:08:49;16.05;;;9.90;;
76631;SDS011;65526;48.578;-4.520;2022-12-10T06:11:16;15.98;;;10.10;;
76631;SDS011;65526;48.578;-4.520;2022-12-10T06:13:43;15.80;;;9.98;;
76631;SDS011;65526;48.578;-4.520;2022-12-10T06:16:11;18.25;;;10.40;;
76631;SDS011;65526;48.578;-4.520;2022-12-10T06:18:39;16.13;;;9.98;;
76631;SDS011;65526;48.578;-4.520;2022-12-10T06:21:08;15.88;;;9.63;;
76631;SDS011;65526;48.578;-4.520;2022-12-10T06:23:39;19.15;;;10.82;;
76631;SDS011;65526;48.578;-4.520;2022-12-10T06:26:07;17.02;;;10.63;;
76631;SDS011;65526;48.578;-4.520;2022-12-10T06:28:36;18.38;;;9.82;;
76631;SDS011;65526;48.578;-4.520;2022-12-10T06:31:03;15.50;;;9.80;;
76631;SDS011;65526;48.578;-4.520;2022-12-10T06:33:31;14.45;;;9.68;;
76631;SDS011;65526;48.578;-4.520;2022-12-10T06:35:58;14.93;;;9.73;;
76631;SDS011;65526;48.578;-4.520;2022-12-10T06:38:25;20.25;;;10.88;;
76631;SDS011;65526;48.578;-4.520;2022-12-10T06:40:51;18.20;;;11.75;;
76631;SDS011;65526;48.578;-4.520;2022-12-10T06:43:18;19.60;;;11.48;;
76631;SDS011;65526;48.578;-4.520;2022-12-10T06:45:45;18.65;;;10.60;;
76631;SDS011;65526;48.578;-4.520;2022-12-10T06:48:11;15.52;;;10.40;;
76631;SDS011;65526;48.578;-4.520;2022-12-10T06:50:38;20.80;;;10.75;;
76631;SDS011;65526;48.578;-4.520;2022-12-10T06:53:04;19.48;;;11.00;;
76631;SDS011;65526;48.578;-4.520;2022-12-10T06:55:30;22.58;;;11.90;;
76631;SDS011;65526;48.578;-4.520;2022-12-10T06:58:00;14.65;;;9.95;;
76631;SDS011;65526;48.578;-4.520;2022-12-10T07:00:27;13.02;;;9.23;;
76631;SDS011;65526;48.578;-4.520;2022-12-10T07:02:53;17.05;;;10.75;;
76631;SDS011;65526;48.578;-4.520;2022-12-10T07:05:20;14.52;;;9.38;;
76631;SDS011;65526;48.578;-4.520;2022-12-10T07:07:46;16.75;;;10.40;;
76631;SDS011;65526;48.578;-4.520;2022-12-10T07:10:13;17.40;;;10.95;;
76631;SDS011;65526;48.578;-4.520;2022-12-10T07:12:40;19.23;;;11.15;;
76631;SDS011;65526;48.578;-4.520;2022-12-10T07:15:06;23.02;;;12.93;;
76631;SDS011;65526;48.578;-4.520;2022-12-10T07:17:41;18.77;;;11.27;;
76631;SDS011;65526;48.578;-4.520;2022-12-10T07:20:08;19.40;;;11.05;;
76631;SDS011;65526;48.578;-4.520;2022-12-10T07:22:35;19.17;;;11.35;;
76631;SDS011;65526;48.578;-4.520;2022-12-10T07:25:02;19.08;;;11.45;;
76631;SDS011;65526;48.578;-4.520;2022-12-10T07:27:29;16.63;;;10.80;;
76631;SDS011;65526;48.578;-4.520;2022-12-10T07:29:57;14.95;;;10.00;;
76631;SDS011;65526;48.578;-4.520;2022-12-10T07:32:23;15.65;;;10.57;;
76631;SDS011;65526;48.578;-4.520;2022-12-10T07:34:50;20.48;;;11.73;;
76631;SDS011;65526;48.578;-4.520;2022-12-10T07:37:19;18.75;;;10.75;;
76631;SDS011;65526;48.578;-4.520;2022-12-10T07:39:51;18.45;;;10.65;;
76631;SDS011;65526;48.578;-4.520;2022-12-10T07:42:48;18.70;;;10.88;;
76631;SDS011;65526;48.578;-4.520;2022-12-10T07:45:16;18.02;;;10.32;;
76631;SDS011;65526;48.578;-4.520;2022-12-10T07:47:42;17.30;;;10.05;;
76631;SDS011;65526;48.578;-4.520;2022-12-10T07:50:08;14.23;;;10.15;;
76631;SDS011;65526;48.578;-4.520;2022-12-10T07:52:36;14.07;;;9.73;;
76631;SDS011;65526;48.578;-4.520;2022-12-10T07:55:02;16.50;;;9.68;;
76631;SDS011;65526;48.578;-4.520;2022-12-10T07:57:29;17.20;;;11.13;;
76631;SDS011;65526;48.578;-4.520;2022-12-10T07:59:56;14.65;;;10.23;;
76631;SDS011;65526;48.578;-4.520;2022-12-10T08:02:24;15.98;;;9.68;;
76631;SDS011;65526;48.578;-4.520;2022-12-10T08:04:50;16.35;;;10.52;;
76631;SDS011;65526;48.578;-4.520;2022-12-10T08:07:16;16.88;;;10.45;;
76631;SDS011;65526;48.578;-4.520;2022-12-10T08:09:43;16.05;;;10.40;;
76631;SDS011;65526;48.578;-4.520;2022-12-10T08:12:09;15.18;;;10.18;;
76631;SDS011;65526;48.578;-4.520;2022-12-10T08:14:36;17.33;;;10.25;;
76631;SDS011;65526;48.578;-4.520;2022-12-10T08:17:02;16.30;;;9.27;;
76631;SDS011;65526;48.578;-4.520;2022-12-10T08:19:29;14.88;;;9.90;;
76631;SDS011;65526;48.578;-4.520;2022-12-10T08:21:55;17.05;;;10.02;;
76631;SDS011;65526;48.578;-4.520;2022-12-10T08:24:22;13.93;;;9.65;;
76631;SDS011;65526;48.578;-4.520;2022-12-10T08:26:48;16.70;;;10.73;;
76631;SDS011;65526;48.578;-4.520;2022-12-10T08:29:15;18.10;;;11.15;;
76631;SDS011;65526;48.578;-4.520;2022-12-10T08:31:41;18.90;;;11.10;;
76631;SDS011;65526;48.578;-4.520;2022-12-10T08:34:12;14.98;;;10.20;;
76631;SDS011;65526;48.578;-4.520;2022-12-10T08:36:40;16.98;;;8.98;;
76631;SDS011;65526;48.578;-4.520;2022-12-10T08:39:06;14.23;;;8.05;;
76631;SDS011;65526;48.578;-4.520;2022-12-10T08:41:36;13.02;;;9.10;;
76631;SDS011;65526;48.578;-4.520;2022-12-10T08:44:02;15.13;;;9.00;;
76631;SDS011;65526;48.578;-4.520;2022-12-10T08:46:34;15.63;;;8.38;;
76631;SDS011;65526;48.578;-4.520;2022-12-10T08:49:06;17.35;;;10.73;;
76631;SDS011;65526;48.578;-4.520;2022-12-10T08:51:38;16.17;;;9.32;;
76631;SDS011;65526;48.578;-4.520;2022-12-10T08:54:08;15.75;;;8.60;;
76631;SDS011;65526;48.578;-4.520;2022-12-10T08:56:34;17.85;;;8.98;;
76631;SDS011;65526;48.578;-4.520;2022-12-10T08:59:01;14.02;;;8.18;;
76631;SDS011;65526;48.578;-4.520;2022-12-10T09:01:27;9.75;;;6.65;;
76631;SDS011;65526;48.578;-4.520;2022-12-10T09:03:54;9.93;;;6.32;;
76631;SDS011;65526;48.578;-4.520;2022-12-10T09:06:20;13.85;;;6.88;;
76631;SDS011;65526;48.578;-4.520;2022-12-10T09:08:49;10.38;;;6.80;;
76631;SDS011;65526;48.578;-4.520;2022-12-10T09:11:19;12.38;;;7.05;;
76631;SDS011;65526;48.578;-4.520;2022-12-10T09:13:50;12.98;;;7.22;;
76631;SDS011;65526;48.578;-4.520;2022-12-10T09:16:17;10.70;;;6.63;;
76631;SDS011;65526;48.578;-4.520;2022-12-10T09:18:43;10.65;;;6.68;;
76631;SDS011;65526;48.578;-4.520;2022-12-10T09:21:11;12.18;;;7.95;;
76631;SDS011;65526;48.578;-4.520;2022-12-10T09:23:40;11.55;;;7.10;;
76631;SDS011;65526;48.578;-4.520;2022-12-10T09:26:08;10.88;;;6.47;;
76631;SDS011;65526;48.578;-4.520;2022-12-10T09:28:36;10.68;;;6.55;;
76631;SDS011;65526;48.578;-4.520;2022-12-10T09:31:04;10.05;;;6.43;;
76631;SDS011;65526;48.578;-4.520;2022-12-10T09:42:09;9.68;;;6.45;;
76631;SDS011;65526;48.578;-4.520;2022-12-10T09:50:41;15.07;;;6.22;;
76631;SDS011;65526;48.578;-4.520;2022-12-10T09:53:32;11.15;;;6.57;;
76631;SDS011;65526;48.578;-4.520;2022-12-10T10:28:48;9.20;;;6.45;;
76631;SDS011;65526;48.578;-4.520;2022-12-10T10:35:29;16.48;;;8.05;;
76631;SDS011;65526;48.578;-4.520;2022-12-10T10:37:59;13.60;;;8.10;;
76631;SDS011;65526;48.578;-4.520;2022-12-10T10:40:49;10.85;;;8.00;;
76631;SDS011;65526;48.578;-4.520;2022-12-10T10:43:20;14.88;;;9.07;;
76631;SDS011;65526;48.578;-4.520;2022-12-10T10:49:31;11.02;;;7.10;;
76631;SDS011;65526;48.578;-4.520;2022-12-10T10:52:01;10.25;;;7.18;;
76631;SDS011;65526;48.578;-4.520;2022-12-10T10:54:44;17.92;;;8.13;;
76631;SDS011;65526;48.578;-4.520;2022-12-10T10:57:20;12.13;;;7.47;;
76631;SDS011;65526;48.578;-4.520;2022-12-10T10:59:54;13.35;;;7.15;;
76631;SDS011;65526;48.578;-4.520;2022-12-10T11:02:30;10.93;;;7.50;;
76631;SDS011;65526;48.578;-4.520;2022-12-10T11:05:20;10.55;;;7.38;;
76631;SDS011;65526;48.578;-4.520;2022-12-10T11:07:59;13.23;;;7.97;;
76631;SDS011;65526;48.578;-4.520;2022-12-10T11:10:30;15.85;;;8.50;;
76631;SDS011;65526;48.578;-4.520;2022-12-10T11:13:07;15.32;;;8.40;;
76631;SDS011;65526;48.578;-4.520;2022-12-10T11:15:54;16.23;;;8.38;;
76631;SDS011;65526;48.578;-4.520;2022-12-10T11:18:31;11.50;;;7.20;;
76631;SDS011;65526;48.578;-4.520;2022-12-10T11:23:41;11.07;;;6.72;;
76631;SDS011;65526;48.578;-4.520;2022-12-10T11:28:55;11.32;;;6.85;;
76631;SDS011;65526;48.578;-4.520;2022-12-10T11:34:20;13.75;;;8.68;;
76631;SDS011;65526;48.578;-4.520;2022-12-10T11:45:25;13.35;;;7.05;;
76631;SDS011;65526;48.578;-4.520;2022-12-10T11:56:43;11.95;;;6.63;;
76631;SDS011;65526;48.578;-4.520;2022-12-10T12:16:41;8.25;;;6.63;;
76631;SDS011;65526;48.578;-4.520;2022-12-10T12:19:22;8.75;;;5.47;;
76631;SDS011;65526;48.578;-4.520;2022-12-10T12:21:54;8.27;;;5.55;;
76631;SDS011;65526;48.578;-4.520;2022-12-10T12:24:32;8.18;;;6.10;;
76631;SDS011;65526;48.578;-4.520;2022-12-10T12:27:09;6.43;;;5.38;;
76631;SDS011;65526;48.578;-4.520;2022-12-10T12:29:41;10.93;;;5.93;;
76631;SDS011;65526;48.578;-4.520;2022-12-10T12:32:20;7.70;;;5.38;;
76631;SDS011;65526;48.578;-4.520;2022-12-10T12:37:17;6.40;;;4.35;;
76631;SDS011;65526;48.578;-4.520;2022-12-10T12:42:48;9.98;;;4.60;;
76631;SDS011;65526;48.578;-4.520;2022-12-10T12:45:24;11.13;;;5.13;;
76631;SDS011;65526;48.578;-4.520;2022-12-10T12:50:25;11.48;;;5.32;;
76631;SDS011;65526;48.578;-4.520;2022-12-10T12:53:14;7.28;;;4.82;;
76631;SDS011;65526;48.578;-4.520;2022-12-10T12:55:53;6.05;;;4.63;;
76631;SDS011;65526;48.578;-4.520;2022-12-10T13:00:51;8.13;;;5.05;;
76631;SDS011;65526;48.578;-4.520;2022-12-10T13:08:57;8.32;;;5.03;;
76631;SDS011;65526;48.578;-4.520;2022-12-10T13:11:28;5.72;;;4.20;;
76631;SDS011;65526;48.578;-4.520;2022-12-10T13:14:11;6.22;;;3.55;;
76631;SDS011;65526;48.578;-4.520;2022-12-10T13:17:00;4.22;;;3.10;;
76631;SDS011;65526;48.578;-4.520;2022-12-10T13:19:34;5.97;;;3.45;;
76631;SDS011;65526;48.578;-4.520;2022-12-10T13:22:03;5.70;;;3.10;;
76631;SDS011;65526;48.578;-4.520;2022-12-10T13:27:14;6.78;;;3.17;;
76631;SDS011;65526;48.578;-4.520;2022-12-10T13:30:01;6.70;;;3.90;;
76631;SDS011;65526;48.578;-4.520;2022-12-10T13:46:34;3.83;;;3.42;;
76631;SDS011;65526;48.578;-4.520;2022-12-10T13:49:18;5.47;;;4.05;;
76631;SDS011;65526;48.578;-4.520;2022-12-10T13:51:54;5.30;;;3.78;;
76631;SDS011;65526;48.578;-4.520;2022-12-10T13:54:35;6.22;;;3.90;;
76631;SDS011;65526;48.578;-4.520;2022-12-10T14:06:39;9.00;;;4.15;;
76631;SDS011;65526;48.578;-4.520;2022-12-10T14:09:23;6.85;;;4.18;;
76631;SDS011;65526;48.578;-4.520;2022-12-10T14:11:57;7.47;;;4.43;;
76631;SDS011;65526;48.578;-4.520;2022-12-10T14:14:31;9.02;;;4.38;;
76631;SDS011;65526;48.578;-4.520;2022-12-10T14:17:03;7.22;;;4.43;;
76631;SDS011;65526;48.578;-4.520;2022-12-10T14:19:32;6.80;;;3.47;;
76631;SDS011;65526;48.578;-4.520;2022-12-10T14:22:04;7.38;;;3.75;;
76631;SDS011;65526;48.578;-4.520;2022-12-10T14:24:34;7.15;;;4.28;;
76631;SDS011;65526;48.578;-4.520;2022-12-10T14:27:11;7.72;;;5.35;;
76631;SDS011;65526;48.578;-4.520;2022-12-10T14:29:48;6.68;;;4.15;;
76631;SDS011;65526;48.578;-4.520;2022-12-10T14:32:17;5.25;;;3.63;;
76631;SDS011;65526;48.578;-4.520;2022-12-10T14:34:51;6.78;;;4.25;;
76631;SDS011;65526;48.578;-4.520;2022-12-10T14:37:22;7.35;;;4.20;;
76631;SDS011;65526;48.578;-4.520;2022-12-10T14:39:52;6.03;;;4.18;;
76631;SDS011;65526;48.578;-4.520;2022-12-10T14:42:18;7.57;;;4.13;;
76631;SDS011;65526;48.578;-4.520;2022-12-10T14:44:46;5.40;;;4.05;;
76631;SDS011;65526;48.578;-4.520;2022-12-10T14:47:20;7.78;;;4.43;;
76631;SDS011;65526;48.578;-4.520;2022-12-10T14:49:47;7.00;;;4.47;;
76631;SDS011;65526;48.578;-4.520;2022-12-10T14:52:17;5.88;;;4.07;;
76631;SDS011;65526;48.578;-4.520;2022-12-10T14:57:15;7.25;;;4.38;;
76631;SDS011;65526;48.578;-4.520;2022-12-10T14:59:54;5.22;;;4.65;;
76631;SDS011;65526;48.578;-4.520;2022-12-10T15:02:36;6.70;;;4.28;;
76631;SDS011;65526;48.578;-4.520;2022-12-10T15:05:09;5.80;;;4.18;;
76631;SDS011;65526;48.578;-4.520;2022-12-10T15:07:41;5.78;;;4.13;;
76631;SDS011;65526;48.578;-4.520;2022-12-10T15:10:13;8.98;;;4.97;;
76631;SDS011;65526;48.578;-4.520;2022-12-10T15:12:45;9.20;;;5.30;;
76631;SDS011;65526;48.578;-4.520;2022-12-10T15:25:46;10.02;;;5.40;;
76631;SDS011;65526;48.578;-4.520;2022-12-10T15:28:22;12.40;;;5.68;;
76631;SDS011;65526;48.578;-4.520;2022-12-10T15:30:51;11.20;;;7.15;;
76631;SDS011;65526;48.578;-4.520;2022-12-10T15:33:31;7.10;;;4.95;;
76631;SDS011;65526;48.578;-4.520;2022-12-10T15:36:02;8.77;;;4.03;;
76631;SDS011;65526;48.578;-4.520;2022-12-10T15:38:29;7.25;;;4.85;;
76631;SDS011;65526;48.578;-4.520;2022-12-10T15:41:10;7.65;;;5.05;;
76631;SDS011;65526;48.578;-4.520;2022-12-10T15:44:01;6.78;;;3.80;;
76631;SDS011;65526;48.578;-4.520;2022-12-10T15:46:30;5.22;;;2.85;;
76631;SDS011;65526;48.578;-4.520;2022-12-10T15:48:57;4.22;;;2.95;;
76631;SDS011;65526;48.578;-4.520;2022-12-10T15:51:24;3.45;;;2.65;;
76631;SDS011;65526;48.578;-4.520;2022-12-10T15:53:51;3.47;;;2.33;;
76631;SDS011;65526;48.578;-4.520;2022-12-10T15:56:18;18.58;;;16.50;;
76631;SDS011;65526;48.578;-4.520;2022-12-10T15:58:44;15.38;;;13.65;;
76631;SDS011;65526;48.578;-4.520;2022-12-10T16:01:12;6.32;;;5.22;;
76631;SDS011;65526;48.578;-4.520;2022-12-10T16:03:41;1.95;;;1.58;;
76631;SDS011;65526;48.578;-4.520;2022-12-10T16:06:08;2.10;;;1.70;;
76631;SDS011;65526;48.578;-4.520;2022-12-10T16:08:34;2.90;;;1.50;;
76631;SDS011;65526;48.578;-4.520;2022-12-10T16:11:02;3.83;;;1.80;;
76631;SDS011;65526;48.578;-4.520;2022-12-10T16:13:46;2.80;;;1.65;;
76631;SDS011;65526;48.578;-4.520;2022-12-10T16:16:16;2.38;;;1.50;;
76631;SDS011;65526;48.578;-4.520;2022-12-10T16:18:43;2.50;;;1.60;;
76631;SDS011;65526;48.578;-4.520;2022-12-10T16:21:10;6.70;;;3.75;;
76631;SDS011;65526;48.578;-4.520;2022-12-10T16:23:36;2.83;;;2.47;;
76631;SDS011;65526;48.578;-4.520;2022-12-10T16:26:16;2.35;;;2.00;;
76631;SDS011;65526;48.578;-4.520;2022-12-10T16:28:44;3.22;;;2.28;;
76631;SDS011;65526;48.578;-4.520;2022-12-10T16:31:13;2.00;;;1.80;;
76631;SDS011;65526;48.578;-4.520;2022-12-10T16:33:42;5.18;;;2.30;;
76631;SDS011;65526;48.578;-4.520;2022-12-10T16:36:09;3.53;;;2.63;;
76631;SDS011;65526;48.578;-4.520;2022-12-10T16:38:37;14.52;;;9.38;;
76631;SDS011;65526;48.578;-4.520;2022-12-10T16:41:25;40.33;;;26.98;;
76631;SDS011;65526;48.578;-4.520;2022-12-10T16:43:53;51.00;;;34.28;;
76631;SDS011;65526;48.578;-4.520;2022-12-10T16:46:20;50.63;;;35.22;;
76631;SDS011;65526;48.578;-4.520;2022-12-10T16:48:46;39.53;;;28.48;;
76631;SDS011;65526;48.578;-4.520;2022-12-10T16:51:31;21.20;;;14.93;;
76631;SDS011;65526;48.578;-4.520;2022-12-10T16:53:58;7.10;;;5.40;;
76631;SDS011;65526;48.578;-4.520;2022-12-10T16:56:24;8.40;;;4.72;;
76631;SDS011;65526;48.578;-4.520;2022-12-10T16:58:51;4.57;;;3.20;;
76631;SDS011;65526;48.578;-4.520;2022-12-10T17:01:19;4.05;;;2.58;;
76631;SDS011;65526;48.578;-4.520;2022-12-10T17:03:47;4.35;;;3.42;;
76631;SDS011;65526;48.578;-4.520;2022-12-10T17:06:14;5.18;;;3.50;;
76631;SDS011;65526;48.578;-4.520;2022-12-10T17:08:42;3.78;;;3.25;;
76631;SDS011;65526;48.578;-4.520;2022-12-10T17:11:15;5.20;;;3.13;;
76631;SDS011;65526;48.578;-4.520;2022-12-10T17:14:04;5.35;;;3.70;;
76631;SDS011;65526;48.578;-4.520;2022-12-10T17:16:32;5.80;;;4.25;;
76631;SDS011;65526;48.578;-4.520;2022-12-10T17:18:58;5.13;;;3.80;;
76631;SDS011;65526;48.578;-4.520;2022-12-10T17:21:24;6.43;;;3.00;;
76631;SDS011;65526;48.578;-4.520;2022-12-10T17:23:51;8.52;;;5.72;;
76631;SDS011;65526;48.578;-4.520;2022-12-10T17:26:27;8.35;;;6.80;;
76631;SDS011;65526;48.578;-4.520;2022-12-10T17:29:05;6.90;;;5.20;;
76631;SDS011;65526;48.578;-4.520;2022-12-10T17:31:37;4.70;;;3.58;;
76631;SDS011;65526;48.578;-4.520;2022-12-10T17:34:05;4.40;;;3.28;;
76631;SDS011;65526;48.578;-4.520;2022-12-10T17:36:32;5.30;;;3.65;;